Time;durP1;ratioP1;P1;durP2;ratioP2;P2;SDS_P1;SDS_P2;PMS_P1;PMS_P2;Temp;Humidity;BMP_temperature;BMP_pressure;BME280_temperature;BME280_humidity;BME280_pressure;Samples;Min_cycle;Max_cycle;Signal;HPM_P1;HPM_P2
2022/03/04 00:02:10;;;;;;;;;44.50;38.00;;;;;11.87;62.93;100866.56;5054792;28;45426;-60
2022/03/04 00:04:37;;;;;;;;;48.25;37.75;;;;;11.85;62.80;100863.97;5054404;28;45925;-59
2022/03/04 00:07:04;;;;;;;;;48.50;40.00;;;;;11.89;62.43;100867.38;5054638;28;45427;-58
2022/03/04 00:09:30;;;;;;;;;40.75;38.00;;;;;11.87;62.80;100864.78;5054557;28;45385;-59
2022/03/04 00:11:56;;;;;;;;;43.00;37.00;;;;;11.88;62.59;100865.69;5054397;28;45426;-59
2022/03/04 00:14:21;;;;;;;;;50.00;40.75;;;;;11.87;63.12;100863.94;5054445;28;46037;-59
2022/03/04 00:16:47;;;;;;;;;53.50;43.25;;;;;11.88;63.10;100866.53;5054396;28;45450;-60
2022/03/04 00:19:12;;;;;;;;;46.75;40.25;;;;;11.88;63.13;100870.94;5054398;28;45425;-59
2022/03/04 00:21:44;;;;;;;;;51.75;41.25;;;;;11.85;63.40;100871.03;5055028;28;45535;-60
2022/03/04 00:24:11;;;;;;;;;30.00;26.75;;;;;11.80;63.85;100870.34;5039813;28;46319;-60
2022/03/04 00:26:38;;;;;;;;;51.50;42.00;;;;;11.77;63.44;100865.16;5057792;28;45637;-61
2022/03/04 00:29:05;;;;;;;;;48.00;38.00;;;;;11.72;63.08;100871.47;5057757;28;45520;-60
2022/03/04 00:31:31;;;;;;;;;40.50;35.00;;;;;11.70;62.96;100880.34;5057688;28;45613;-59
2022/03/04 00:33:56;;;;;;;;;51.25;40.00;;;;;11.65;63.02;100866.44;5057299;28;45903;-58
2022/03/04 00:36:23;;;;;;;;;46.00;39.75;;;;;11.61;63.40;100865.72;5057656;28;45474;-59
2022/03/04 00:38:50;;;;;;;;;48.50;40.00;;;;;11.56;63.47;100865.00;5057796;28;45448;-59
2022/03/04 00:41:18;;;;;;;;;53.75;44.00;;;;;11.53;64.18;100865.13;5057250;28;45443;-58
2022/03/04 00:43:43;;;;;;;;;51.50;42.25;;;;;11.50;64.41;100867.88;5057449;28;45422;-61
2022/03/04 00:46:09;;;;;;;;;45.75;40.50;;;;;11.49;63.60;100868.75;5057351;28;45425;-58
2022/03/04 00:48:34;;;;;;;;;50.25;42.00;;;;;11.47;64.70;100862.69;5057495;28;45370;-59
2022/03/04 00:51:00;;;;;;;;;52.50;44.75;;;;;11.47;64.35;100862.69;5056306;28;45710;-58
2022/03/04 00:53:25;;;;;;;;;49.00;41.50;;;;;11.45;64.65;100852.22;5057090;28;45383;-59
2022/03/04 00:55:51;;;;;;;;;53.00;43.00;;;;;11.37;64.21;100846.34;5057229;28;45360;-60
2022/03/04 00:58:16;;;;;;;;;52.00;44.50;;;;;11.44;64.90;100860.16;5057417;28;45500;-60
2022/03/04 01:00:42;;;;;;;;;54.25;45.25;;;;;11.43;64.72;100856.66;5057103;28;45543;-59
2022/03/04 01:03:07;;;;;;;;;54.50;44.50;;;;;11.43;64.83;100861.09;5056894;28;45519;-60
2022/03/04 01:05:32;;;;;;;;;54.75;43.50;;;;;11.39;64.79;100855.06;5057214;28;45382;-59
2022/03/04 01:07:58;;;;;;;;;57.50;45.25;;;;;11.34;64.70;100858.75;5057168;28;45633;-59
2022/03/04 01:10:23;;;;;;;;;53.25;44.00;;;;;11.34;64.70;100866.66;5056989;28;45577;-60
2022/03/04 01:12:48;;;;;;;;;54.50;44.00;;;;;11.33;65.15;100862.31;5056908;28;46012;-60
2022/03/04 01:15:14;;;;;;;;;56.00;44.25;;;;;11.33;64.94;100870.22;5057127;28;45580;-59
2022/03/04 01:17:39;;;;;;;;;51.50;43.75;;;;;11.32;64.79;100876.41;5057064;28;45574;-60
2022/03/04 01:20:06;;;;;;;;;50.25;42.00;;;;;11.25;65.06;100866.06;5057024;28;45549;-60
2022/03/04 01:22:32;;;;;;;;;46.75;41.25;;;;;11.30;65.24;100870.31;5056605;28;46375;-60
2022/03/04 01:24:57;;;;;;;;;53.75;42.50;;;;;11.26;65.08;100865.16;5056768;28;45512;-59
2022/03/04 01:27:23;;;;;;;;;56.50;45.25;;;;;11.25;65.07;100865.19;5056893;28;45508;-59
2022/03/04 01:29:48;;;;;;;;;53.75;44.50;;;;;11.25;64.80;100863.41;5055779;28;45443;-61
2022/03/04 01:32:13;;;;;;;;;49.00;40.75;;;;;11.28;64.71;100865.09;5056284;28;45489;-59
2022/03/04 01:34:39;;;;;;;;;48.75;41.00;;;;;11.25;64.16;100860.78;5056615;28;45516;-59
2022/03/04 01:37:04;;;;;;;;;51.50;41.00;;;;;11.28;64.68;100865.97;5056694;28;45405;-58
2022/03/04 01:39:30;;;;;;;;;50.25;42.50;;;;;11.30;64.29;100863.28;5056755;28;45395;-59
2022/03/04 01:41:56;;;;;;;;;53.25;43.50;;;;;11.33;65.33;100868.44;5056178;28;45360;-60
2022/03/04 01:44:22;;;;;;;;;51.50;44.00;;;;;11.36;65.31;100867.47;5056564;28;45387;-60
2022/03/04 01:46:47;;;;;;;;;54.00;43.50;;;;;11.38;64.43;100863.00;5056641;28;45385;-61
2022/03/04 01:49:14;;;;;;;;;58.00;45.50;;;;;11.37;65.17;100858.66;5056616;28;45365;-59
2022/03/04 01:51:39;;;;;;;;;49.75;41.00;;;;;11.37;64.76;100858.66;5056485;28;46271;-61
2022/03/04 01:54:05;;;;;;;;;50.25;43.25;;;;;11.36;64.84;100857.78;5056152;28;45504;-60
2022/03/04 01:56:30;;;;;;;;;51.25;43.50;;;;;11.39;65.04;100864.72;5056343;28;45530;-58
2022/03/04 01:58:56;;;;;;;;;54.00;43.75;;;;;11.40;64.47;100862.06;5056266;28;45647;-59
2022/03/04 02:01:21;;;;;;;;;55.00;45.25;;;;;11.41;64.85;100853.22;5055962;28;45908;-58
2022/03/04 02:03:47;;;;;;;;;52.25;43.00;;;;;11.41;65.25;100844.47;5056254;28;45363;-60
2022/03/04 02:06:13;;;;;;;;;53.50;44.00;;;;;11.40;65.11;100842.75;5056352;28;45446;-59
2022/03/04 02:08:39;;;;;;;;;53.50;45.25;;;;;11.45;64.76;100846.09;5056164;28;45511;-58
2022/03/04 02:11:04;;;;;;;;;55.00;44.25;;;;;11.44;65.77;100839.09;5055620;28;45520;-59
2022/03/04 02:13:29;;;;;;;;;57.50;45.00;;;;;11.44;64.58;100841.72;5056156;28;45406;-60
2022/03/04 02:15:55;;;;;;;;;54.00;45.25;;;;;11.46;65.57;100829.38;5055982;28;45360;-58
2022/03/04 02:18:21;;;;;;;;;52.25;43.25;;;;;11.46;65.30;100832.84;5056158;28;45359;-63
2022/03/04 02:20:49;;;;;;;;;54.50;44.75;;;;;11.45;64.66;100835.56;5055711;28;45905;-58
2022/03/04 02:23:15;;;;;;;;;55.25;44.00;;;;;11.44;64.91;100831.19;5055688;28;45518;-60
2022/03/04 02:25:43;;;;;;;;;49.50;41.00;;;;;11.42;65.17;100836.53;5056049;28;45497;-59
2022/03/04 02:28:09;;;;;;;;;57.25;45.00;;;;;11.41;65.04;100833.94;5055889;28;45437;-60
2022/03/04 02:30:36;;;;;;;;;53.00;43.25;;;;;11.40;65.49;100830.44;5055625;28;45843;-58
2022/03/04 02:33:02;;;;;;;;;53.75;44.75;;;;;11.42;64.59;100833.03;5055779;28;45398;-60
2022/03/04 02:35:30;;;;;;;;;58.00;46.50;;;;;11.39;65.71;100826.09;5055767;28;45391;-60
2022/03/04 02:37:55;;;;;;;;;57.00;45.25;;;;;11.41;64.72;100829.53;5054380;28;45433;-59
2022/03/04 02:40:21;;;;;;;;;53.00;42.75;;;;;11.37;65.08;100821.81;5055471;28;46243;-59
2022/03/04 02:42:46;;;;;;;;;52.50;43.00;;;;;11.35;65.75;100826.25;5055578;28;45412;-59
2022/03/04 02:45:11;;;;;;;;;45.75;39.50;;;;;11.31;65.07;100824.63;5054771;28;45689;-59
2022/03/04 02:47:37;;;;;;;;;49.00;40.50;;;;;11.32;64.62;100824.59;5055704;28;45684;-59
2022/03/04 02:50:02;;;;;;;;;49.50;41.50;;;;;11.36;64.53;100834.09;5055592;28;46180;-59
2022/03/04 02:52:28;;;;;;;;;51.50;40.00;;;;;11.35;64.94;100829.75;5055442;28;45434;-58
2022/03/04 02:54:53;;;;;;;;;51.75;43.75;;;;;11.36;64.91;100838.50;5055626;28;45425;-58
2022/03/04 02:57:18;;;;;;;;;44.25;39.00;;;;;11.35;65.20;100835.00;5055651;28;45440;-58
2022/03/04 02:59:43;;;;;;;;;47.25;39.75;;;;;11.36;64.63;100833.22;5055500;28;45437;-59
2022/03/04 03:02:09;;;;;;;;;45.50;41.00;;;;;11.39;64.67;100834.00;5055550;28;45351;-59
2022/03/04 03:04:34;;;;;;;;;40.50;35.00;;;;;11.38;64.97;100834.91;5055606;28;45455;-61
2022/03/04 03:07:00;;;;;;;;;41.25;37.25;;;;;11.36;64.78;100834.09;5055592;28;45540;-59
2022/03/04 03:09:25;;;;;;;;;38.00;36.00;;;;;11.35;63.91;100831.53;5055471;28;46234;-60
2022/03/04 03:11:50;;;;;;;;;34.50;33.00;;;;;11.34;64.81;100840.31;5055304;28;45468;-60
2022/03/04 03:14:15;;;;;;;;;43.50;37.75;;;;;11.35;64.75;100834.16;5055342;28;47742;-60
2022/03/04 03:16:41;;;;;;;;;41.75;35.25;;;;;11.36;64.09;100833.22;5055563;28;45327;-60
2022/03/04 03:19:08;;;;;;;;;44.25;37.75;;;;;11.37;64.77;100834.97;5055285;28;46305;-60
2022/03/04 03:21:33;;;;;;;;;42.75;37.75;;;;;11.39;64.68;100830.50;5055246;28;45517;-58
2022/03/04 03:23:59;;;;;;;;;37.75;35.00;;;;;11.33;65.23;100836.84;5055368;28;45513;-60
2022/03/04 03:26:24;;;;;;;;;43.00;38.50;;;;;11.33;64.14;100846.50;5055383;28;45550;-60
2022/03/04 03:28:49;;;;;;;;;40.75;37.25;;;;;11.28;64.35;100841.41;5055170;28;45473;-59
2022/03/04 03:31:15;;;;;;;;;44.50;37.25;;;;;11.23;64.56;100836.31;5055072;28;45531;-60
2022/03/04 03:33:43;;;;;;;;;38.75;35.75;;;;;11.22;65.46;100842.47;5055397;28;45473;-58
2022/03/04 03:36:08;;;;;;;;;45.75;39.25;;;;;11.23;64.73;100851.22;5055276;28;45461;-60
2022/03/04 03:38:34;;;;;;;;;42.25;37.00;;;;;11.23;65.48;100851.22;5054936;28;45490;-60
2022/03/04 03:41:00;;;;;;;;;49.50;42.00;;;;;11.17;66.19;100847.03;5055007;28;45461;-60
2022/03/04 03:43:25;;;;;;;;;52.75;43.75;;;;;11.15;65.57;100843.59;5055215;28;45453;-58
2022/03/04 03:45:50;;;;;;;;;49.50;40.25;;;;;11.17;65.16;100844.38;5054916;28;45522;-60
2022/03/04 03:48:15;;;;;;;;;53.75;44.75;;;;;11.15;65.16;100846.25;5055005;28;45398;-59
2022/03/04 03:50:41;;;;;;;;;50.75;43.75;;;;;11.14;65.80;100843.66;5053422;28;45484;-60
2022/03/04 03:53:08;;;;;;;;;50.50;43.00;;;;;11.13;65.86;100850.69;5054969;28;45335;-59
2022/03/04 03:55:34;;;;;;;;;47.25;40.50;;;;;11.10;65.80;100850.78;5055567;28;45383;-60
2022/03/04 03:57:59;;;;;;;;;50.00;39.25;;;;;11.10;66.09;100852.56;5058190;28;45457;-58
2022/03/04 04:00:26;;;;;;;;;52.75;44.00;;;;;11.11;65.39;100843.75;5057223;28;45439;-60
2022/03/04 04:02:52;;;;;;;;;51.00;44.25;;;;;11.12;65.54;100845.47;5058603;28;45449;-59
2022/03/04 04:05:17;;;;;;;;;53.75;44.75;;;;;11.13;66.16;100841.94;5058246;28;45612;-61
2022/03/04 04:07:42;;;;;;;;;47.50;41.50;;;;;11.13;65.95;100857.72;5058154;28;45477;-60
2022/03/04 04:10:08;;;;;;;;;54.25;44.25;;;;;11.11;65.21;100854.28;5058042;28;45565;-58
2022/03/04 04:12:34;;;;;;;;;56.25;46.50;;;;;11.11;65.37;100859.53;5058386;28;45443;-59
2022/03/04 04:14:59;;;;;;;;;51.50;43.25;;;;;11.10;66.08;100853.44;5058234;28;45395;-58
2022/03/04 04:17:25;;;;;;;;;49.25;43.25;;;;;11.12;65.80;100854.22;5056868;28;48281;-61
2022/03/04 04:19:50;;;;;;;;;52.00;42.00;;;;;11.08;65.93;100839.44;5058107;28;45321;-60
2022/03/04 04:22:15;;;;;;;;;49.50;42.25;;;;;11.09;66.14;100854.31;5058211;28;45486;-60
2022/03/04 04:24:41;;;;;;;;;55.75;45.25;;;;;11.13;65.86;100855.94;5058137;28;45623;-61
2022/03/04 04:27:06;;;;;;;;;50.50;42.00;;;;;11.12;65.22;100851.59;5057811;28;46279;-60
2022/03/04 04:29:31;;;;;;;;;52.75;44.75;;;;;11.12;65.47;100850.72;5058023;28;45454;-60
2022/03/04 04:31:57;;;;;;;;;57.75;47.00;;;;;11.13;66.24;100852.47;5057034;28;45390;-61
2022/03/04 04:34:22;;;;;;;;;56.50;47.00;;;;;11.11;65.53;100857.78;5057977;28;45559;-60
2022/03/04 04:36:48;;;;;;;;;56.75;47.00;;;;;11.10;66.00;100855.22;5057750;28;45371;-60
2022/03/04 04:39:13;;;;;;;;;59.25;49.50;;;;;11.13;66.08;100863.84;5057765;28;45396;-60
2022/03/04 04:41:39;;;;;;;;;59.50;49.50;;;;;11.17;65.17;100861.97;5073490;27;45462;-59
2022/03/04 04:44:04;;;;;;;;;57.25;48.75;;;;;11.20;65.12;100870.66;5056491;28;45397;-60
2022/03/04 04:46:30;;;;;;;;;54.50;44.50;;;;;11.22;65.00;100868.78;5055766;28;46573;-61
2022/03/04 04:48:55;;;;;;;;;54.50;45.00;;;;;11.22;65.26;100866.16;5057794;28;45520;-58
2022/03/04 04:51:20;;;;;;;;;58.50;48.00;;;;;11.19;65.75;100865.41;5057775;28;45952;-60
2022/03/04 04:53:46;;;;;;;;;57.75;48.50;;;;;11.22;65.69;100875.84;5057718;28;45561;-60
2022/03/04 04:56:11;;;;;;;;;53.75;45.75;;;;;11.23;64.97;100873.16;5057450;28;45585;-59
2022/03/04 04:58:37;;;;;;;;;60.75;48.75;;;;;11.25;66.25;100879.22;5057455;28;45410;-59
2022/03/04 05:01:02;;;;;;;;;54.00;44.75;;;;;11.24;65.87;100882.78;5056205;28;45516;-59
2022/03/04 05:03:27;;;;;;;;;57.75;49.50;;;;;11.25;65.18;100879.22;5057604;28;45551;-59
2022/03/04 05:05:54;;;;;;;;;53.00;46.00;;;;;11.25;65.63;100873.94;5057332;28;45463;-59
2022/03/04 05:08:20;;;;;;;;;54.25;46.00;;;;;11.27;65.78;100885.31;5056471;28;45378;-58
2022/03/04 05:10:46;;;;;;;;;53.00;44.75;;;;;11.31;65.51;100879.94;5057179;28;45367;-59
2022/03/04 05:13:12;;;;;;;;;57.50;48.00;;;;;11.32;66.22;100885.16;5055914;28;45567;-58
2022/03/04 05:15:38;;;;;;;;;56.25;46.25;;;;;11.33;65.24;100884.22;5057296;28;46407;-60
2022/03/04 05:18:04;;;;;;;;;59.25;49.75;;;;;11.32;65.04;100881.66;5057383;28;45390;-59
2022/03/04 05:20:29;;;;;;;;;59.25;49.25;;;;;11.33;66.29;100886.00;5057168;28;45370;-59
2022/03/04 05:22:54;;;;;;;;;61.25;50.75;;;;;11.34;66.40;100890.34;5057358;28;45434;-59
2022/03/04 05:25:20;;;;;;;;;62.75;50.50;;;;;11.32;65.96;100898.31;5056990;28;45440;-60
2022/03/04 05:27:45;;;;;;;;;61.00;50.00;;;;;11.32;66.09;100893.06;5057222;28;45462;-59
2022/03/04 05:30:11;;;;;;;;;57.75;48.50;;;;;11.33;65.67;100900.03;5057366;28;45450;-59
2022/03/04 05:32:37;;;;;;;;;60.50;50.50;;;;;11.34;66.15;100898.25;5057194;28;45624;-58
2022/03/04 05:35:03;;;;;;;;;60.00;48.75;;;;;11.32;66.23;100898.31;5056597;28;46173;-59
2022/03/04 05:37:28;;;;;;;;;64.00;51.75;;;;;11.31;66.57;100901.88;5055763;28;45437;-59
2022/03/04 05:39:54;;;;;;;;;63.50;50.75;;;;;11.28;65.99;100901.94;5056829;28;45430;-59
2022/03/04 05:42:20;;;;;;;;;64.75;53.00;;;;;11.27;66.40;100906.38;5056769;28;45391;-61
2022/03/04 05:44:45;;;;;;;;;72.00;58.50;;;;;11.28;66.98;100896.69;5056733;28;45406;-60
2022/03/04 05:47:11;;;;;;;;;63.25;52.75;;;;;11.32;65.98;100905.38;5056586;28;45509;-59
2022/03/04 05:49:37;;;;;;;;;64.75;53.00;;;;;11.34;66.56;100901.78;5056793;28;45411;-59
2022/03/04 05:52:03;;;;;;;;;60.50;50.00;;;;;11.32;66.88;100903.59;5056804;28;45697;-60
2022/03/04 05:54:29;;;;;;;;;59.50;49.50;;;;;11.34;65.89;100900.88;5056397;28;46005;-60
2022/03/04 05:56:54;;;;;;;;;67.00;53.50;;;;;11.35;65.79;100890.31;5056756;28;45490;-58
2022/03/04 05:59:20;;;;;;;;;60.50;49.75;;;;;11.37;65.95;100892.91;5056385;28;45922;-58
2022/03/04 06:01:45;;;;;;;;;64.25;51.25;;;;;11.40;65.41;100898.91;5056456;28;45474;-59
2022/03/04 06:04:11;;;;;;;;;66.50;53.00;;;;;11.39;66.54;100906.84;5056291;28;46003;-60
2022/03/04 06:06:36;;;;;;;;;67.00;53.25;;;;;11.40;65.67;100911.22;5056388;28;45551;-59
2022/03/04 06:09:01;;;;;;;;;64.75;53.25;;;;;11.40;66.50;100905.97;5056582;28;45405;-58
2022/03/04 06:11:27;;;;;;;;;71.75;54.75;;;;;11.40;65.77;100901.56;5055008;28;45506;-59
2022/03/04 06:13:52;;;;;;;;;65.25;52.00;;;;;11.40;65.85;100905.97;5055961;28;45976;-60
2022/03/04 06:16:19;;;;;;;;;67.25;54.50;;;;;11.40;66.39;100905.97;5055266;28;45466;-60
2022/03/04 06:18:44;;;;;;;;;65.00;52.25;;;;;11.40;66.03;100912.09;5055147;28;45426;-60
2022/03/04 06:21:10;;;;;;;;;63.00;51.00;;;;;11.42;66.20;100914.69;5056057;28;45602;-59
2022/03/04 06:23:35;;;;;;;;;65.00;52.25;;;;;11.43;66.53;100919.88;5055996;28;46049;-59
2022/03/04 06:26:00;;;;;;;;;66.00;53.50;;;;;11.44;65.89;100926.00;5055996;28;45450;-59
2022/03/04 06:28:27;;;;;;;;;65.75;52.75;;;;;11.40;66.19;100922.63;5056174;28;45418;-58
2022/03/04 06:30:53;;;;;;;;;69.25;55.50;;;;;11.44;66.38;100926.00;5056177;28;45315;-59
2022/03/04 06:33:35;;;;;;;;;63.50;50.50;;;;;11.43;66.24;100929.56;5056055;28;46147;-60
2022/03/04 06:36:14;;;;;;;;;65.50;50.75;;;;;11.42;65.96;100933.13;5055937;28;45506;-60
2022/03/04 06:38:42;;;;;;;;;65.50;51.25;;;;;11.41;65.23;100932.22;5054505;28;45490;-59
2022/03/04 06:41:09;;;;;;;;;65.25;53.75;;;;;11.34;65.73;100921.94;5055743;28;45513;-59
2022/03/04 06:43:35;;;;;;;;;69.00;54.25;;;;;11.39;66.12;100933.19;5055930;28;46041;-60
2022/03/04 06:46:02;;;;;;;;;72.75;55.00;;;;;11.40;65.35;100934.94;5054504;28;45434;-60
2022/03/04 06:48:28;;;;;;;;;63.75;51.75;;;;;11.40;65.98;100950.75;5055876;28;45479;-60
2022/03/04 06:50:53;;;;;;;;;66.00;53.00;;;;;11.40;66.11;100945.47;5055647;28;45427;-60
2022/03/04 06:53:20;;;;;;;;;59.25;50.50;;;;;11.39;65.93;100959.53;5055450;28;45490;-59
2022/03/04 06:55:46;;;;;;;;;66.75;55.00;;;;;11.35;66.99;100965.81;5054564;28;45450;-59
2022/03/04 06:58:12;;;;;;;;;66.50;53.25;;;;;11.35;66.98;100966.69;5054352;28;45424;-59
2022/03/04 07:00:39;;;;;;;;;58.75;49.00;;;;;11.34;66.49;100961.44;5055717;28;45470;-59
2022/03/04 07:03:04;;;;;;;;;67.25;56.00;;;;;11.37;65.82;100961.38;5055088;28;46373;-60
2022/03/04 07:05:30;;;;;;;;;66.50;51.75;;;;;11.38;66.67;100970.97;5055647;28;45429;-59
2022/03/04 07:07:56;;;;;;;;;63.75;50.75;;;;;11.37;66.29;100972.75;5055574;28;45358;-60
2022/03/04 07:10:22;;;;;;;;;61.75;49.25;;;;;11.37;66.16;100966.63;5055472;28;45332;-59
2022/03/04 07:12:48;;;;;;;;;66.50;54.50;;;;;11.36;66.80;100972.81;5055467;28;45410;-60
2022/03/04 07:15:14;;;;;;;;;70.25;55.75;;;;;11.36;66.98;100967.53;5055447;28;45507;-58
2022/03/04 07:17:40;;;;;;;;;69.00;55.25;;;;;11.36;66.56;100965.75;5055543;28;45452;-60
2022/03/04 07:20:07;;;;;;;;;66.50;53.75;;;;;11.40;66.86;100971.81;5054024;28;45658;-60
2022/03/04 07:22:35;;;;;;;;;70.00;54.00;;;;;11.42;66.59;100970.84;5054873;28;46240;-60
2022/03/04 07:25:01;;;;;;;;;67.00;55.25;;;;;11.42;65.82;100975.25;5055402;28;45400;-58
2022/03/04 07:27:27;;;;;;;;;68.50;53.25;;;;;11.44;66.55;100986.56;5055393;28;45426;-59
2022/03/04 07:29:52;;;;;;;;;67.75;54.25;;;;;11.41;65.95;100979.63;5055220;28;45366;-58
2022/03/04 07:32:17;;;;;;;;;65.25;53.00;;;;;11.40;66.74;100982.34;5054350;28;56121;-59
2022/03/04 07:34:43;;;;;;;;;69.50;54.50;;;;;11.36;66.12;100978.91;5055000;28;45420;-60
2022/03/04 07:37:08;;;;;;;;;68.25;55.25;;;;;11.38;65.88;100982.38;5055274;28;45423;-60
2022/03/04 07:39:33;;;;;;;;;69.75;54.75;;;;;11.40;66.19;100982.34;5055091;28;45526;-60
2022/03/04 07:42:01;;;;;;;;;66.75;55.50;;;;;11.38;65.99;100985.00;5054971;28;45485;-60
2022/03/04 07:44:27;;;;;;;;;66.50;53.50;;;;;11.41;65.79;100986.69;5055156;28;45466;-58
2022/03/04 07:46:52;;;;;;;;;67.50;54.75;;;;;11.43;66.05;100991.00;5054980;28;45447;-59
2022/03/04 07:49:17;;;;;;;;;58.50;48.75;;;;;11.44;64.40;100984.81;5054865;28;45489;-59
2022/03/04 07:51:43;;;;;;;;;58.25;48.25;;;;;11.41;65.29;100992.81;5055080;28;45962;-59
2022/03/04 07:54:09;;;;;;;;;61.00;51.00;;;;;11.40;64.80;100987.59;5054738;28;45462;-58
2022/03/04 07:56:34;;;;;;;;;62.00;50.25;;;;;11.37;65.02;100996.47;5054813;28;45418;-59
2022/03/04 07:59:00;;;;;;;;;65.25;52.50;;;;;11.41;64.66;100997.22;5054799;28;45580;-59
2022/03/04 08:01:25;;;;;;;;;66.00;52.25;;;;;11.41;64.34;101002.47;5054393;28;45352;-59
2022/03/04 08:03:50;;;;;;;;;67.00;54.25;;;;;11.44;65.27;100999.75;5054570;28;45478;-61
2022/03/04 08:06:16;;;;;;;;;63.25;51.00;;;;;11.45;64.80;100998.84;5054529;28;51889;-60
2022/03/04 08:08:41;;;;;;;;;68.00;53.50;;;;;11.49;64.09;101003.09;5054732;28;45530;-59
2022/03/04 08:11:07;;;;;;;;;61.50;49.50;;;;;11.49;64.25;101001.31;5054221;28;45539;-60
2022/03/04 08:13:34;;;;;;;;;64.50;53.00;;;;;11.50;64.26;101003.06;5054689;28;45501;-60
2022/03/04 08:16:00;;;;;;;;;60.75;49.25;;;;;11.52;64.00;101005.63;5054686;28;45513;-60
2022/03/04 08:18:25;;;;;;;;;68.50;54.25;;;;;11.54;63.93;101016.97;5054479;28;45572;-59
2022/03/04 08:20:51;;;;;;;;;67.00;54.50;;;;;11.52;64.88;101016.16;5054075;28;51726;-59
2022/03/04 08:23:17;;;;;;;;;62.50;53.00;;;;;11.62;63.70;101022.00;5054378;28;45473;-59
2022/03/04 08:25:43;;;;;;;;;66.75;53.25;;;;;11.63;64.04;101024.59;5054718;28;45472;-61
2022/03/04 08:28:08;;;;;;;;;64.25;52.00;;;;;11.66;65.01;101024.50;5053408;28;45454;-60
2022/03/04 08:30:34;;;;;;;;;66.00;53.50;;;;;11.69;63.67;101029.66;5053927;28;45444;-60
2022/03/04 08:32:59;;;;;;;;;65.75;54.25;;;;;11.72;64.50;101033.97;5054308;28;45387;-60
2022/03/04 08:35:25;;;;;;;;;66.00;52.75;;;;;11.74;63.71;101032.16;5054294;28;45414;-60
2022/03/04 08:37:52;;;;;;;;;62.00;51.75;;;;;11.72;63.95;101034.81;5054516;28;45555;-60
2022/03/04 08:40:18;;;;;;;;;62.00;51.00;;;;;11.75;64.30;101030.38;5054256;28;45380;-58
2022/03/04 08:42:43;;;;;;;;;64.50;52.50;;;;;11.73;64.80;101028.63;5054821;28;45346;-60
2022/03/04 08:45:10;;;;;;;;;64.50;52.00;;;;;11.73;64.06;101033.03;5057763;28;45416;-60
2022/03/04 08:47:36;;;;;;;;;65.25;52.25;;;;;11.76;64.18;101025.03;5057647;28;45516;-58
2022/03/04 08:50:02;;;;;;;;;70.50;55.00;;;;;11.83;64.24;101023.06;5057378;28;45542;-59
2022/03/04 08:52:27;;;;;;;;;69.50;54.50;;;;;11.83;63.64;101034.47;5056157;28;45401;-60
2022/03/04 08:54:53;;;;;;;;;63.75;52.25;;;;;11.84;63.62;101036.16;5057359;28;45448;-60
2022/03/04 08:57:19;;;;;;;;;66.75;54.25;;;;;11.86;63.71;101033.53;5057411;28;45491;-61
2022/03/04 08:59:44;;;;;;;;;67.25;56.00;;;;;11.92;64.82;101033.31;5055905;28;47233;-60
2022/03/04 09:02:10;;;;;;;;;67.25;53.75;;;;;11.89;63.67;101036.91;5057260;28;45593;-59
2022/03/04 09:04:35;;;;;;;;;68.25;55.25;;;;;11.93;63.76;101041.19;5057502;28;45409;-60
2022/03/04 09:07:02;;;;;;;;;70.25;56.25;;;;;11.94;64.74;101039.41;5057434;28;45382;-59
2022/03/04 09:09:28;;;;;;;;;65.00;52.50;;;;;11.97;64.20;101044.56;5057019;28;46968;-60
2022/03/04 09:11:53;;;;;;;;;67.75;55.50;;;;;11.99;64.54;101042.75;5056968;28;45407;-58
2022/03/04 09:14:22;;;;;;;;;68.75;56.50;;;;;11.98;64.11;101038.38;5057255;28;45412;-58
2022/03/04 09:16:48;;;;;;;;;65.75;53.50;;;;;12.02;64.45;101039.16;5055996;28;45498;-57
2022/03/04 09:19:13;;;;;;;;;66.50;53.25;;;;;12.04;63.62;101035.53;5056600;28;45916;-60
2022/03/04 09:21:39;;;;;;;;;70.75;55.75;;;;;12.10;63.32;101042.38;5056641;28;45454;-60
2022/03/04 09:24:04;;;;;;;;;75.25;58.50;;;;;12.13;64.26;101039.63;5056677;28;45358;-59
2022/03/04 09:26:30;;;;;;;;;73.25;56.50;;;;;12.15;63.17;101036.03;5056913;28;45549;-60
2022/03/04 09:28:55;;;;;;;;;72.75;56.75;;;;;12.15;63.04;101038.66;5056704;28;46200;-60
2022/03/04 09:31:21;;;;;;;;;70.50;57.00;;;;;12.21;63.30;101042.00;5056658;28;45444;-59
2022/03/04 09:33:46;;;;;;;;;71.25;57.00;;;;;12.24;63.11;101040.13;5056839;28;45440;-61
2022/03/04 09:36:14;;;;;;;;;71.50;56.00;;;;;12.26;63.20;101048.00;5056768;28;45549;-59
2022/03/04 09:38:41;;;;;;;;;71.75;56.00;;;;;12.27;63.19;101036.50;5056245;28;45756;-62
2022/03/04 09:41:07;;;;;;;;;72.00;58.00;;;;;12.30;62.71;101047.81;5056349;28;45458;-65
2022/03/04 09:43:33;;;;;;;;;71.50;55.25;;;;;12.34;62.95;101041.53;5056535;28;45481;-60
2022/03/04 09:45:59;;;;;;;;;77.25;59.00;;;;;12.36;63.22;101042.34;5056452;28;45558;-58
2022/03/04 09:48:25;;;;;;;;;71.00;56.25;;;;;12.42;62.50;101035.13;5056297;28;45464;-58
2022/03/04 09:50:50;;;;;;;;;72.75;56.75;;;;;12.43;61.91;101039.47;5056315;28;45469;-58
2022/03/04 09:53:16;;;;;;;;;72.75;57.00;;;;;12.45;62.48;101046.41;5056171;28;45446;-58
2022/03/04 09:55:43;;;;;;;;;73.50;57.50;;;;;12.46;62.28;101044.63;5054941;28;45439;-59
2022/03/04 09:58:15;;;;;;;;;67.50;54.25;;;;;12.46;61.91;101047.25;5055986;28;46395;-59
2022/03/04 10:00:42;;;;;;;;;72.25;56.00;;;;;12.45;61.74;101041.13;5055953;28;45504;-60
2022/03/04 10:03:29;;;;;;;;;73.50;58.50;;;;;12.46;61.82;101045.47;5056060;28;45378;-60
2022/03/04 10:05:56;;;;;;;;;73.00;56.75;;;;;12.45;61.63;101046.41;5055983;28;45558;-59
2022/03/04 10:08:22;;;;;;;;;79.75;64.50;;;;;12.48;61.41;101050.72;5055903;28;45437;-59
2022/03/04 10:10:55;;;;;;;;;74.25;56.75;;;;;12.53;62.05;101049.63;5055759;28;47046;-58
2022/03/04 10:13:40;;;;;;;;;74.00;58.25;;;;;12.56;61.59;101048.66;5054707;28;45518;-58
2022/03/04 10:16:05;;;;;;;;;69.25;56.75;;;;;12.59;61.12;101049.41;5055786;28;45680;-60
2022/03/04 10:18:31;;;;;;;;;76.25;59.25;;;;;12.54;61.52;101027.59;5055920;28;45541;-60
2022/03/04 10:20:56;;;;;;;;;70.00;57.00;;;;;12.62;61.67;101043.16;5055725;28;45461;-59
2022/03/04 10:23:24;;;;;;;;;74.50;59.75;;;;;12.63;61.26;101044.00;5055869;28;45485;-59
2022/03/04 10:25:55;;;;;;;;;71.50;57.00;;;;;12.66;61.60;101046.56;5055911;28;45454;-58
2022/03/04 10:28:25;;;;;;;;;69.50;56.00;;;;;12.67;60.64;101045.63;5055887;28;45516;-59
2022/03/04 10:30:53;;;;;;;;;72.25;57.00;;;;;12.65;60.33;101045.66;5055979;28;45445;-60
2022/03/04 10:33:20;;;;;;;;;71.75;56.75;;;;;12.63;61.30;101046.66;5055758;28;45453;-59
2022/03/04 10:35:46;;;;;;;;;73.75;58.00;;;;;12.66;61.14;101046.56;5055913;28;45651;-58
2022/03/04 10:38:23;;;;;;;;;76.75;59.50;;;;;12.62;60.67;101037.88;5055809;28;45391;-60
2022/03/04 10:40:49;;;;;;;;;90.50;82.75;;;;;12.71;60.60;101052.53;5055637;28;45399;-59
2022/03/04 10:43:23;;;;;;;;;75.50;58.75;;;;;12.69;60.70;101049.09;5055681;28;45383;-59
2022/03/04 10:46:01;;;;;;;;;75.50;60.00;;;;;12.72;60.39;101056.88;5054698;28;45383;-59
2022/03/04 10:48:26;;;;;;;;;74.25;59.75;;;;;12.68;61.22;101050.88;5055526;28;45434;-58
2022/03/04 10:50:57;;;;;;;;;76.50;60.25;;;;;12.69;60.72;101052.56;5055613;28;45567;-59
2022/03/04 10:53:27;;;;;;;;;70.50;58.00;;;;;12.70;60.91;101051.66;5055811;28;45414;-61
2022/03/04 10:55:56;;;;;;;;;74.50;58.00;;;;;12.75;60.75;101054.13;5055322;28;45513;-58
2022/03/04 10:58:36;;;;;;;;;73.50;58.75;;;;;12.74;60.54;101055.06;5055444;28;45450;-58
2022/03/04 11:01:08;;;;;;;;;71.25;57.50;;;;;12.72;60.57;101052.47;5055336;28;45479;-59
2022/03/04 11:03:34;;;;;;;;;78.75;64.25;;;;;12.73;60.49;101043.59;5055220;28;45429;-58
2022/03/04 11:06:05;;;;;;;;;70.50;56.25;;;;;12.74;60.46;101039.22;5054718;28;45378;-59